Time;durP1;ratioP1;P1;durP2;ratioP2;P2;SDS_P1;SDS_P2;PMS_P1;PMS_P2;Temp;Humidity;BMP_temperature;BMP_pressure;BME280_temperature;BME280_humidity;BME280_pressure;Samples;Min_cycle;Max_cycle;Signal;HPM_P1;HPM_P2
2022/11/03 00:00:04;;;;;;;13.20;2.10;;;;;;;;;;5026163;28;20272;-60
2022/11/03 00:02:30;;;;;;;12.13;2.00;;;;;;;;;;5027441;28;20643;-59
2022/11/03 00:06:03;;;;;;;14.73;1.80;;;;;;;;;;5026896;28;20182;-59
2022/11/03 00:07:43;;;;;;;13.37;1.40;;;;;;;;;;5029952;28;20241;-60
2022/11/03 00:10:09;;;;;;;16.17;2.23;;;;;;;;;;5032569;28;20177;-59
2022/11/03 00:12:35;;;;;;;13.60;2.30;;;;;;;;;;5031414;28;20269;-60
2022/11/03 00:15:01;;;;;;;13.43;2.13;;;;;;;;;;5032656;28;20227;-60
2022/11/03 00:17:27;;;;;;;15.00;1.90;;;;;;;;;;5031190;28;20213;-60
2022/11/03 00:19:53;;;;;;;12.13;1.90;;;;;;;;;;5033281;28;20259;-61
2022/11/03 00:22:19;;;;;;;17.87;2.00;;;;;;;;;;5029365;28;20186;-60
2022/11/03 00:24:45;;;;;;;14.33;2.10;;;;;;;;;;5019530;28;20182;-60
2022/11/03 00:27:11;;;;;;;13.27;2.00;;;;;;;;;;5020795;28;20559;-60
2022/11/03 00:29:37;;;;;;;11.53;2.00;;;;;;;;;;5033367;28;20661;-60
2022/11/03 00:32:02;;;;;;;14.70;2.30;;;12.80;99.90;;;;;;5031977;28;20178;-60
2022/11/03 00:34:28;;;;;;;14.87;2.30;;;;;;;;;;5030003;28;20194;-59
2022/11/03 00:36:54;;;;;;;17.57;2.70;;;;;;;;;;5021250;28;20185;-59
2022/11/03 00:39:20;;;;;;;18.60;2.50;;;;;;;;;;5032096;28;20204;-60
2022/11/03 00:41:46;;;;;;;13.80;2.00;;;;;;;;;;5030614;28;20213;-59
2022/11/03 00:44:12;;;;;;;19.67;2.27;;;;;;;;;;5032419;28;20174;-59
2022/11/03 00:46:39;;;;;;;19.40;2.60;;;;;;;;;;5032149;28;20180;-59
2022/11/03 00:49:05;;;;;;;11.80;2.03;;;;;;;;;;5032952;28;20204;-59
2022/11/03 00:51:33;;;;;;;17.30;2.60;;;;;;;;;;5012997;28;20732;-59
2022/11/03 00:53:59;;;;;;;21.20;2.97;;;;;;;;;;5032165;28;20178;-59
2022/11/03 00:56:28;;;;;;;18.20;2.60;;;12.50;99.90;;;;;;5029668;28;20313;-59
2022/11/03 00:58:54;;;;;;;17.60;3.03;;;;;;;;;;5030652;28;20412;-59
2022/11/03 01:01:23;;;;;;;15.77;2.20;;;12.40;99.90;;;;;;5025730;28;20259;-59
2022/11/03 01:06:52;;;;;;;26.17;5.07;;;;;;;;;;5030270;28;20256;-60
2022/11/03 01:09:21;;;;;;;24.30;3.87;;;;;;;;;;5023260;28;20192;-59
2022/11/03 01:12:00;;;;;;;18.43;3.40;;;12.40;99.90;;;;;;5031859;28;20222;-59
2022/11/03 01:14:28;;;;;;;23.60;4.73;;;;;;;;;;5030644;28;20239;-59
2022/11/03 01:16:54;;;;;;;21.50;4.43;;;;;;;;;;5032070;28;20273;-59
2022/11/03 01:19:20;;;;;;;19.80;3.33;;;;;;;;;;5024299;28;20244;-59
2022/11/03 01:21:46;;;;;;;18.23;3.07;;;;;;;;;;5030243;28;20220;-59
2022/11/03 01:24:12;;;;;;;19.83;2.60;;;;;;;;;;5030668;28;20173;-59
2022/11/03 01:26:38;;;;;;;15.53;2.00;;;12.00;99.90;;;;;;5031698;28;20204;-59
2022/11/03 01:29:04;;;;;;;15.20;1.90;;;;;;;;;;5031925;28;20177;-60
2022/11/03 01:31:30;;;;;;;12.47;1.90;;;;;;;;;;5031870;28;20517;-59
2022/11/03 01:33:56;;;;;;;10.47;1.80;;;;;;;;;;5031786;28;20182;-59
2022/11/03 01:36:23;;;;;;;18.83;2.90;;;;;;;;;;5031093;28;20555;-60
2022/11/03 01:38:49;;;;;;;17.33;2.90;;;;;;;;;;5030496;28;20581;-60
2022/11/03 01:41:16;;;;;;;21.77;3.03;;;;;;;;;;5025776;28;20655;-60
2022/11/03 01:43:43;;;;;;;19.70;2.30;;;;;;;;;;5031145;28;20178;-59
2022/11/03 01:46:26;;;;;;;15.20;2.63;;;11.80;99.90;;;;;;5030115;28;20193;-60
2022/11/03 01:49:08;;;;;;;19.50;3.27;;;11.70;99.90;;;;;;5030279;28;20249;-61
2022/11/03 01:51:35;;;;;;;16.57;1.93;;;11.70;99.90;;;;;;5030730;28;20174;-60
2022/11/03 01:54:06;;;;;;;19.03;2.73;;;11.60;99.90;;;;;;5029912;28;20256;-61
2022/11/03 01:56:34;;;;;;;17.97;2.30;;;11.60;99.90;;;;;;5030302;28;20707;-59
2022/11/03 01:59:01;;;;;;;22.93;2.80;;;;;;;;;;5030350;28;20193;-60
2022/11/03 02:01:27;;;;;;;14.13;2.17;;;;;;;;;;5029940;28;20213;-60
2022/11/03 02:03:57;;;;;;;17.17;2.60;;;;;;;;;;5030410;28;20268;-60
2022/11/03 02:06:25;;;;;;;19.60;2.63;;;;;;;;;;5015491;28;20201;-60
2022/11/03 02:08:57;;;;;;;21.13;2.50;;;11.40;99.90;;;;;;5018578;28;20251;-60
2022/11/03 02:14:12;;;;;;;18.20;2.60;;;11.10;99.90;;;;;;5025090;28;20243;-60
2022/11/03 02:16:41;;;;;;;18.53;2.10;;;11.00;99.90;;;;;;5029844;28;20662;-60
2022/11/03 02:19:15;;;;;;;12.67;1.93;;;11.20;99.90;;;;;;5029669;28;20190;-60
2022/11/03 02:21:48;;;;;;;17.17;2.47;;;;;;;;;;5030082;28;20225;-60
2022/11/03 02:24:49;;;;;;;16.23;2.13;;;11.10;99.90;;;;;;5029763;28;20174;-60
2022/11/03 02:27:15;;;;;;;12.10;1.80;;;;;;;;;;5029322;28;20583;-60
2022/11/03 02:29:41;;;;;;;24.03;2.80;;;;;;;;;;5030149;28;20174;-60
2022/11/03 02:32:11;;;;;;;14.43;2.40;;;;;;;;;;5030687;28;20200;-60
2022/11/03 02:35:16;;;;;;;13.53;2.07;;;11.00;99.90;;;;;;5031083;28;20174;-60
2022/11/03 02:37:45;;;;;;;14.03;2.30;;;;;;;;;;5027305;28;20257;-60
2022/11/03 02:40:33;;;;;;;15.53;2.37;;;10.90;99.90;;;;;;5026208;28;20209;-60
2022/11/03 02:43:00;;;;;;;14.40;1.93;;;11.00;99.90;;;;;;5029899;28;20332;-60
2022/11/03 02:45:27;;;;;;;15.13;2.43;;;;;;;;;;5030738;28;20209;-60
2022/11/03 02:47:58;;;;;;;19.27;2.00;;;;;;;;;;5023434;28;20194;-61
2022/11/03 02:50:29;;;;;;;20.33;2.17;;;10.90;99.90;;;;;;5012065;28;20191;-61
2022/11/03 02:52:55;;;;;;;10.20;1.47;;;;;;;;;;5028631;28;20181;-60
2022/11/03 02:55:33;;;;;;;14.77;2.10;;;;;;;;;;5030786;28;20204;-60
2022/11/03 02:58:18;;;;;;;16.60;1.80;;;;;;;;;;5028941;28;20235;-60
2022/11/03 03:01:00;;;;;;;18.77;2.00;;;10.80;99.90;;;;;;5016474;28;20222;-59
2022/11/03 03:03:30;;;;;;;18.13;2.20;;;10.60;99.90;;;;;;5026134;28;20267;-60
2022/11/03 03:05:58;;;;;;;15.43;2.50;;;;;;;;;;5026207;28;20190;-60
2022/11/03 03:08:25;;;;;;;14.80;2.63;;;;;;;;;;5029513;28;20188;-60
2022/11/03 03:10:52;;;;;;;12.03;1.93;;;;;;;;;;5026356;28;20628;-60
2022/11/03 03:13:21;;;;;;;12.97;2.07;;;10.60;99.90;;;;;;5029083;28;20193;-60
2022/11/03 03:15:53;;;;;;;12.80;2.17;;;;;;;;;;5028001;28;20185;-59
2022/11/03 03:18:19;;;;;;;16.63;2.67;;;;;;;;;;5029336;28;20186;-60
2022/11/03 03:20:55;;;;;;;13.80;2.03;;;10.60;99.90;;;;;;5028828;28;20220;-60
2022/11/03 03:23:26;;;;;;;21.03;2.50;;;;;;;;;;5028048;28;20710;-61
2022/11/03 03:25:55;;;;;;;18.33;2.07;;;;;;;;;;5030790;28;20650;-60
2022/11/03 03:28:24;;;;;;;17.57;2.40;;;;;;;;;;5033391;28;20170;-60
2022/11/03 03:30:53;;;;;;;15.60;2.40;;;10.60;99.90;;;;;;5021984;28;20189;-60
2022/11/03 03:33:20;;;;;;;17.63;2.20;;;10.60;99.90;;;;;;5033697;28;20714;-60
2022/11/03 03:35:49;;;;;;;12.07;2.00;;;10.70;99.90;;;;;;5033127;28;20170;-60
2022/11/03 03:38:20;;;;;;;23.17;2.60;;;10.50;99.90;;;;;;5015902;28;20182;-60
2022/11/03 03:40:50;;;;;;;15.20;2.33;;;10.60;99.90;;;;;;5032042;28;20201;-61
2022/11/03 03:43:16;;;;;;;14.20;2.00;;;;;;;;;;5033764;28;20178;-60
2022/11/03 03:45:44;;;;;;;16.80;2.10;;;;;;;;;;5033684;28;20170;-60
2022/11/03 03:48:10;;;;;;;12.73;1.67;;;10.60;99.90;;;;;;5033250;28;20246;-61
2022/11/03 03:50:38;;;;;;;22.80;2.47;;;10.60;99.90;;;;;;5029894;28;20208;-61
2022/11/03 03:53:05;;;;;;;20.30;2.50;;;;;;;;;;5032562;28;20184;-61
2022/11/03 03:55:37;;;;;;;14.33;1.80;;;10.70;99.90;;;;;;5032940;28;20186;-60
2022/11/03 03:58:03;;;;;;;15.73;2.47;;;;;;;;;;5031796;28;20182;-61
2022/11/03 04:00:29;;;;;;;16.37;2.00;;;;;;;;;;5028596;28;20201;-61
2022/11/03 04:02:57;;;;;;;13.40;2.20;;;;;;;;;;5018330;28;20206;-61
2022/11/03 04:05:23;;;;;;;16.23;2.17;;;;;;;;;;5028318;28;20186;-61
2022/11/03 04:07:49;;;;;;;14.70;1.73;;;;;;;;;;5031504;28;20188;-61
2022/11/03 04:10:20;;;;;;;18.20;2.60;;;10.70;99.90;;;;;;5032897;28;20178;-61
2022/11/03 04:23:46;;;;;;;16.10;2.13;;;;;;;;;;5032990;28;20275;-61
2022/11/03 04:26:14;;;;;;;16.57;2.13;;;;;;;;;;5031820;28;20188;-62
2022/11/03 04:28:41;;;;;;;20.27;2.50;;;;;;;;;;5032181;28;20182;-61
2022/11/03 04:31:15;;;;;;;10.27;1.93;;;10.50;99.90;;;;;;5032224;28;20190;-60
2022/11/03 04:33:41;;;;;;;13.77;2.20;;;;;;;;;;5032481;28;20180;-60
2022/11/03 04:36:14;;;;;;;19.03;2.50;;;;;;;;;;5030850;28;20215;-60
2022/11/03 04:38:42;;;;;;;24.33;2.40;;;10.60;99.90;;;;;;5031764;28;20174;-59
2022/11/03 04:41:20;;;;;;;16.20;2.30;;;;;;;;;;5031895;28;20225;-61
2022/11/03 04:43:46;;;;;;;20.13;2.23;;;;;;;;;;5032682;28;20178;-60
2022/11/03 04:46:15;;;;;;;13.80;2.50;;;;;;;;;;5032738;28;20178;-60
2022/11/03 04:48:41;;;;;;;20.33;2.63;;;;;;;;;;5031693;28;20174;-60
2022/11/03 04:51:16;;;;;;;27.43;2.80;;;10.60;99.90;;;;;;5030783;28;20594;-61
2022/11/03 04:53:48;;;;;;;17.17;2.20;;;;;;;;;;5011232;28;20543;-61
2022/11/03 04:56:17;;;;;;;15.77;2.20;;;10.70;99.90;;;;;;5032025;28;20233;-60
2022/11/03 04:58:43;;;;;;;22.33;2.83;;;;;;;;;;5030324;28;20644;-61
2022/11/03 05:01:14;;;;;;;13.67;2.43;;;10.60;99.90;;;;;;5027922;28;20214;-60
2022/11/03 05:03:41;;;;;;;14.90;2.10;;;;;;;;;;5030744;28;20180;-61
2022/11/03 05:06:12;;;;;;;19.77;2.20;;;;;;;;;;5031729;28;20205;-60
2022/11/03 05:08:38;;;;;;;11.00;1.80;;;;;;;;;;5029768;28;20178;-60
2022/11/03 05:11:28;;;;;;;9.93;1.83;;;;;;;;;;5029281;28;20592;-61
2022/11/03 05:13:57;;;;;;;14.33;1.90;;;;;;;;;;5019015;28;20760;-61
2022/11/03 05:16:23;;;;;;;16.57;1.83;;;;;;;;;;5029917;28;20201;-61
2022/11/03 05:18:49;;;;;;;16.53;2.13;;;;;;;;;;5031404;28;20182;-60
2022/11/03 05:21:20;;;;;;;17.90;2.30;;;10.60;99.90;;;;;;5021952;28;20214;-61
2022/11/03 05:23:51;;;;;;;16.67;2.47;;;10.40;99.90;;;;;;5030541;28;20182;-61
2022/11/03 05:26:26;;;;;;;14.90;1.93;;;10.60;99.90;;;;;;5031895;28;20178;-61
2022/11/03 05:28:55;;;;;;;18.53;2.40;;;;;;;;;;5031128;28;20173;-60
2022/11/03 05:31:21;;;;;;;13.50;2.07;;;;;;;;;;5030298;28;20598;-61
2022/11/03 05:33:48;;;;;;;14.33;2.33;;;10.60;99.90;;;;;;5030068;28;20184;-61
2022/11/03 05:36:20;;;;;;;17.57;2.27;;;10.60;99.90;;;;;;5022102;28;20186;-61
2022/11/03 05:38:46;;;;;;;20.20;2.40;;;;;;;;;;5025429;28;20231;-60
2022/11/03 05:41:28;;;;;;;18.77;2.20;;;10.60;99.90;;;;;;5030145;28;20224;-61
2022/11/03 05:44:00;;;;;;;21.40;1.93;;;10.60;99.90;;;;;;5026237;28;20545;-61
2022/11/03 05:46:30;;;;;;;17.47;3.03;;;10.70;99.90;;;;;;5013304;28;20714;-61
2022/11/03 05:48:56;;;;;;;19.27;2.33;;;;;;;;;;5029820;28;20190;-61
2022/11/03 05:51:26;;;;;;;21.63;2.20;;;10.60;99.90;;;;;;5013209;28;20328;-61
2022/11/03 05:53:56;;;;;;;16.33;2.03;;;10.60;99.90;;;;;;5031680;28;20231;-61
2022/11/03 05:56:24;;;;;;;13.60;2.47;;;10.50;99.90;;;;;;5030655;28;20865;-60
2022/11/03 05:58:59;;;;;;;18.10;2.23;;;;;;;;;;5029998;28;20224;-60
2022/11/03 06:01:25;;;;;;;18.50;2.43;;;;;;;;;;5027047;28;20224;-61
2022/11/03 06:03:52;;;;;;;12.23;2.40;;;;;;;;;;5027914;28;20536;-61
2022/11/03 06:06:20;;;;;;;22.43;2.90;;;;;;;;;;5028121;28;20232;-60
2022/11/03 06:08:46;;;;;;;25.47;2.50;;;;;;;;;;5027694;28;20269;-60
2022/11/03 06:11:20;;;;;;;15.83;2.00;;;;;;;;;;5021580;28;20202;-61
2022/11/03 06:13:46;;;;;;;14.73;2.17;;;;;;;;;;5017043;28;20699;-60
2022/11/03 06:16:21;;;;;;;18.20;1.93;;;;;;;;;;5015513;28;20178;-60
2022/11/03 06:18:47;;;;;;;12.30;2.00;;;;;;;;;;5028398;28;20178;-60
2022/11/03 06:21:18;;;;;;;17.63;2.10;;;10.50;99.90;;;;;;5028224;28;20561;-61
2022/11/03 06:23:44;;;;;;;12.73;2.27;;;;;;;;;;5026085;28;20184;-61
2022/11/03 06:26:17;;;;;;;19.33;2.17;;;;;;;;;;5026676;28;20182;-61
2022/11/03 06:28:43;;;;;;;18.33;1.97;;;;;;;;;;5014071;28;20185;-60
2022/11/03 06:31:28;;;;;;;16.97;2.50;;;10.50;99.90;;;;;;5026177;28;20705;-60
2022/11/03 06:33:56;;;;;;;19.53;2.50;;;10.60;99.90;;;;;;5026748;28;20182;-61
2022/11/03 06:36:26;;;;;;;15.10;2.50;;;;;;;;;;5026859;28;20209;-58
2022/11/03 06:38:56;;;;;;;23.53;2.83;;;;;;;;;;5029974;28;20224;-59
2022/11/03 06:41:24;;;;;;;17.73;2.33;;;10.70;99.90;;;;;;5031055;28;20205;-59
2022/11/03 06:43:50;;;;;;;12.73;2.30;;;;;;;;;;5029780;28;20176;-59
2022/11/03 06:46:25;;;;;;;13.67;2.27;;;10.60;99.90;;;;;;5030458;28;20610;-59
2022/11/03 06:48:54;;;;;;;16.30;2.00;;;10.50;99.90;;;;;;5029836;28;20269;-59
2022/11/03 06:51:21;;;;;;;15.27;2.20;;;;;;;;;;5030208;28;20181;-59
2022/11/03 06:53:52;;;;;;;9.77;2.20;;;10.50;99.90;;;;;;5027591;28;20256;-59
2022/11/03 06:56:23;;;;;;;15.63;2.67;;;10.50;99.90;;;;;;5026497;28;20225;-59
2022/11/03 06:58:52;;;;;;;19.73;2.40;;;;;;;;;;5013455;28;20182;-59
2022/11/03 07:01:21;;;;;;;17.83;2.13;;;;;;;;;;5032416;28;20296;-59
2022/11/03 07:03:48;;;;;;;21.37;2.67;;;;;;;;;;5030696;28;20174;-59
2022/11/03 07:06:24;;;;;;;270.43;10.67;;;10.80;99.90;;;;;;5028335;28;20641;-59
2022/11/03 07:08:57;;;;;;;13.70;2.50;;;10.60;99.90;;;;;;5007652;28;20543;-59
2022/11/03 07:11:25;;;;;;;21.03;2.53;;;;;;;;;;5021860;28;20178;-59
2022/11/03 07:13:52;;;;;;;18.03;3.03;;;;;;;;;;5031164;28;20253;-59
2022/11/03 07:16:33;;;;;;;15.93;2.57;;;;;;;;;;5032525;28;20217;-59
2022/11/03 07:19:00;;;;;;;23.40;3.00;;;10.50;99.90;;;;;;5026178;28;20232;-59
2022/11/03 07:21:37;;;;;;;21.53;2.43;;;10.50;99.90;;;;;;5029513;28;20210;-60
2022/11/03 07:24:12;;;;;;;14.70;2.33;;;;;;;;;;5033725;28;20174;-59
2022/11/03 07:26:38;;;;;;;11.73;2.10;;;;;;;;;;5033804;28;20182;-60
2022/11/03 07:29:04;;;;;;;20.40;2.53;;;;;;;;;;5031623;28;20205;-60
2022/11/03 07:31:31;;;;;;;9.27;2.10;;;10.60;99.90;;;;;;5033522;28;20193;-59
2022/11/03 07:33:57;;;;;;;16.27;2.30;;;10.50;99.90;;;;;;5028563;28;20178;-60
2022/11/03 07:36:26;;;;;;;18.70;2.43;;;10.40;99.90;;;;;;5034184;28;20227;-60
2022/11/03 07:38:55;;;;;;;9.73;1.57;;;10.40;99.90;;;;;;5034044;28;20220;-60
2022/11/03 07:41:25;;;;;;;9.07;1.17;;;10.10;99.90;;;;;;5033548;28;20335;-60
2022/11/03 07:43:58;;;;;;;10.33;1.50;;;;;;;;;;5032658;28;20543;-62
2022/11/03 07:46:24;;;;;;;9.60;1.70;;;;;;;;;;5015145;28;20197;-61
2022/11/03 07:49:03;;;;;;;10.97;1.23;;;;;;;;;;5032833;28;20178;-61
2022/11/03 07:51:41;;;;;;;12.00;1.47;;;;;;;;;;5034038;28;20178;-59
2022/11/03 07:54:07;;;;;;;5.00;1.00;;;;;;;;;;5033484;28;20190;-60
2022/11/03 07:56:46;;;;;;;11.13;1.30;;;10.20;99.90;;;;;;5030857;28;20217;-58
2022/11/03 07:59:17;;;;;;;9.07;1.10;;;10.30;99.90;;;;;;5015779;28;20174;-58
2022/11/03 08:01:47;;;;;;;8.73;1.00;;;10.10;99.90;;;;;;5031837;28;20411;-58
2022/11/03 08:04:17;;;;;;;7.70;1.17;;;;;;;;;;5030869;28;20225;-62
2022/11/03 08:06:43;;;;;;;13.03;1.23;;;;;;;;;;5024980;28;20182;-61
2022/11/03 08:09:09;;;;;;;10.00;1.13;;;;;;;;;;5026905;28;20177;-60
2022/11/03 08:11:35;;;;;;;11.17;1.37;;;;;;;;;;5022653;28;20210;-61
2022/11/03 08:14:01;;;;;;;8.80;1.40;;;;;;;;;;5020914;28;20239;-60
2022/11/03 08:16:27;;;;;;;8.13;1.10;;;;;;;;;;5033182;28;20181;-60
2022/11/03 08:18:53;;;;;;;14.97;1.33;;;;;;;;;;5015313;28;20185;-60
2022/11/03 08:21:19;;;;;;;9.80;1.10;;;;;;;;;;5032055;28;20301;-60
2022/11/03 08:23:45;;;;;;;8.33;1.30;;;;;;;;;;5032545;28;20192;-60
2022/11/03 08:26:11;;;;;;;8.70;1.30;;;;;;;;;;5032556;28;20181;-60
2022/11/03 08:28:37;;;;;;;11.80;1.47;;;;;;;;;;5033319;28;20706;-60
2022/11/03 08:31:04;;;;;;;11.97;1.27;;;10.10;99.90;;;;;;5033299;28;20683;-61
2022/11/03 08:33:34;;;;;;;14.00;1.47;;;;;;;;;;5032993;28;20181;-60
2022/11/03 08:36:00;;;;;;;14.83;1.47;;;;;;;;;;5029634;28;20283;-60
2022/11/03 08:38:27;;;;;;;9.63;1.20;;;;;;;;;;5013471;28;20170;-61
2022/11/03 08:40:54;;;;;;;9.97;1.30;;;10.10;99.90;;;;;;5013380;28;20276;-60
2022/11/03 08:43:20;;;;;;;7.20;1.30;;;;;;;;;;5017861;28;20177;-61
2022/11/03 08:45:52;;;;;;;13.70;2.00;;;;;;;;;;5032194;28;20186;-61
2022/11/03 08:48:18;;;;;;;11.03;1.50;;;;;;;;;;5030137;28;20182;-61
2022/11/03 08:50:44;;;;;;;8.87;1.13;;;;;;;;;;5020544;28;20194;-61
2022/11/03 08:53:10;;;;;;;7.23;1.50;;;;;;;;;;5012790;28;20189;-62
2022/11/03 08:55:36;;;;;;;15.30;1.80;;;;;;;;;;5012635;28;20268;-63
2022/11/03 08:58:02;;;;;;;13.43;2.10;;;;;;;;;;5018890;28;20233;-63
2022/11/03 09:00:28;;;;;;;17.87;2.00;;;;;;;;;;5027897;28;20214;-63
2022/11/03 09:02:54;;;;;;;10.63;1.80;;;;;;;;;;5030143;28;20189;-61
2022/11/03 09:05:20;;;;;;;14.93;1.50;;;;;;;;;;5032490;28;20170;-63
2022/11/03 09:07:46;;;;;;;13.27;1.57;;;;;;;;;;5028580;28;20198;-62
2022/11/03 09:10:12;;;;;;;13.40;1.60;;;;;;;;;;5028417;28;20182;-62
2022/11/03 09:12:38;;;;;;;10.93;1.70;;;;;;;;;;5030519;28;20807;-65
2022/11/03 09:15:05;;;;;;;11.93;2.33;;;10.70;99.90;;;;;;5031461;28;20641;-62
2022/11/03 09:17:31;;;;;;;12.83;1.53;;;;;;;;;;5031908;28;20177;-63
2022/11/03 09:19:58;;;;;;;9.63;1.37;;;;;;;;;;5031658;28;20669;-62
2022/11/03 09:22:24;;;;;;;9.50;1.90;;;;;;;;;;5021464;28;20685;-65
2022/11/03 09:24:50;;;;;;;11.47;2.17;;;;;;;;;;5016625;28;20182;-64
2022/11/03 09:27:16;;;;;;;13.30;2.43;;;;;;;;;;5026542;28;20690;-61
2022/11/03 09:29:42;;;;;;;9.90;2.20;;;;;;;;;;5030081;28;20174;-67
2022/11/03 09:32:09;;;;;;;14.87;2.30;;;;;;;;;;5031673;28;20169;-63
2022/11/03 09:34:35;;;;;;;9.60;1.73;;;;;;;;;;5032129;28;20181;-64
2022/11/03 09:37:01;;;;;;;14.87;1.90;;;;;;;;;;5030445;28;20293;-63
2022/11/03 09:39:27;;;;;;;14.60;1.97;;;;;;;;;;5028810;28;20673;-63
2022/11/03 09:41:56;;;;;;;11.57;1.90;;;;;;;;;;5024200;28;20304;-64
2022/11/03 09:44:22;;;;;;;12.17;1.83;;;;;;;;;;5022469;28;20174;-62
2022/11/03 09:46:50;;;;;;;13.17;2.20;;;;;;;;;;5023279;28;20664;-62
2022/11/03 09:49:16;;;;;;;9.77;1.70;;;;;;;;;;5024018;28;20178;-64
2022/11/03 09:51:42;;;;;;;11.17;1.90;;;;;;;;;;5025666;28;20282;-64
2022/11/03 09:54:14;;;;;;;14.90;2.00;;;;;;;;;;5028981;28;20223;-63
2022/11/03 09:56:40;;;;;;;15.07;2.13;;;;;;;;;;5027591;28;20239;-64
2022/11/03 09:59:18;;;;;;;9.13;1.97;;;11.70;99.90;;;;;;5029233;28;20296;-64
2022/11/03 10:01:45;;;;;;;7.80;1.50;;;;;;;;;;5030592;28;20213;-64
2022/11/03 10:04:12;;;;;;;8.80;1.70;;;;;;;;;;5031353;28;20177;-64
2022/11/03 10:06:38;;;;;;;8.40;1.77;;;12.40;99.90;;;;;;5029875;28;20645;-63
2022/11/03 10:09:07;;;;;;;9.13;1.40;;;12.50;99.90;;;;;;5024959;28;20169;-63
2022/11/03 10:11:33;;;;;;;11.50;1.63;;;;;;;;;;5020798;28;20192;-63
2022/11/03 10:14:00;;;;;;;10.27;1.30;;;;;;;;;;5003882;28;20178;-63
2022/11/03 10:16:27;;;;;;;8.90;1.83;;;;;;;;;;5027033;28;20186;-63
2022/11/03 10:18:53;;;;;;;10.47;1.77;;;;;;;;;;5025079;28;20208;-63
2022/11/03 10:21:20;;;;;;;12.97;2.17;;;;;;;;;;5030000;28;20218;-63
2022/11/03 10:23:48;;;;;;;10.37;2.03;;;;;;;;;;5028955;28;20185;-63
2022/11/03 10:26:17;;;;;;;8.90;2.03;;;;;;;;;;5028557;28;20714;-62
2022/11/03 10:29:01;;;;;;;9.50;1.60;;;13.20;99.90;;;;;;5023326;28;20185;-62
2022/11/03 10:31:34;;;;;;;20.13;2.77;;;13.30;99.90;;;;;;5017662;28;20166;-62
2022/11/03 10:34:00;;;;;;;16.37;2.37;;;;;;;;;;5024170;28;20182;-63
2022/11/03 10:36:29;;;;;;;15.20;2.17;;;;;;;;;;5017460;28;20239;-63
2022/11/03 10:38:55;;;;;;;12.83;2.23;;;13.20;99.90;;;;;;5020728;28;20201;-63
2022/11/03 10:41:27;;;;;;;9.85;1.80;;;13.50;99.90;;;;;;5016303;28;20364;-63
2022/11/03 10:44:15;;;;;;;9.50;1.90;;;13.80;99.90;;;;;;5024846;28;20280;-63
2022/11/03 10:46:54;;;;;;;12.10;1.67;;;;;;;;;;5025828;28;20186;-64
2022/11/03 10:49:20;;;;;;;10.25;1.90;;;;;;;;;;5027683;28;20177;-63
2022/11/03 10:51:48;;;;;;;8.50;1.60;;;;;;;;;;5022728;28;20629;-64
2022/11/03 10:54:16;;;;;;;7.68;1.20;;;13.60;99.90;;;;;;5022277;28;20594;-63
2022/11/03 10:56:42;;;;;;;11.77;2.42;;;;;;;;;;5020114;28;20295;-63
2022/11/03 10:59:17;;;;;;;10.75;1.55;;;13.50;99.90;;;;;;5021186;28;20243;-63
2022/11/03 11:01:44;;;;;;;12.05;1.60;;;;;;;;;;5020520;28;20209;-63
2022/11/03 11:04:18;;;;;;;7.40;1.58;;;14.20;99.90;;;;;;5024263;28;20174;-63
2022/11/03 11:06:45;;;;;;;3.00;1.02;;;;;;;;;;5024819;28;20181;-61
2022/11/03 11:09:14;;;;;;;7.38;1.25;;;15.80;99.90;;;;;;5013786;28;20178;-62
2022/11/03 11:11:57;;;;;;;6.85;1.17;;;;;;;;;;5027125;28;20242;-60
2022/11/03 11:14:29;;;;;;;8.93;2.00;;;;;;;;;;5028439;28;20182;-60
2022/11/03 11:16:57;;;;;;;5.60;1.35;;;16.00;99.90;;;;;;5020561;28;20195;-60
2022/11/03 11:19:24;;;;;;;6.22;1.08;;;;;;;;;;5002851;28;20228;-59
2022/11/03 11:21:58;;;;;;;8.70;1.30;;;;;;;;;;5026806;28;20687;-59
2022/11/03 11:24:42;;;;;;;5.93;1.30;;;;;;;;;;5017134;28;20203;-60
2022/11/03 11:27:41;;;;;;;4.60;1.13;;;;;;;;;;5010387;28;20254;-60
2022/11/03 11:30:27;;;;;;;4.90;1.30;;;;;;;;;;4977810;28;20676;-60
2022/11/03 11:32:59;;;;;;;3.30;1.20;;;;;;;;;;5010412;28;20182;-60
2022/11/03 11:35:26;;;;;;;8.18;1.50;;;;;;;;;;5007899;28;20182;-60
2022/11/03 11:37:53;;;;;;;5.82;1.33;;;;;;;;;;5008765;28;20171;-60
2022/11/03 11:40:25;;;;;;;5.65;1.40;;;;;;;;;;5008490;28;20174;-60
2022/11/03 11:43:03;;;;;;;6.05;1.45;;;;;;;;;;5008692;28;20183;-60
2022/11/03 11:45:48;;;;;;;5.38;1.23;;;;;;;;;;5009113;28;20217;-60
2022/11/03 11:48:17;;;;;;;10.63;1.55;;;;;;;;;;5013223;28;20201;-60
2022/11/03 11:50:43;;;;;;;4.80;1.23;;;;;;;;;;5013959;28;20163;-60
2022/11/03 11:53:10;;;;;;;8.70;1.48;;;;;;;;;;5014064;28;20637;-60
2022/11/03 11:55:41;;;;;;;5.07;1.23;;;17.60;99.90;;;;;;5014137;28;20313;-60
2022/11/03 11:58:34;;;;;;;7.72;1.63;;;;;;;;;;5014190;28;20245;-60
2022/11/03 12:01:27;;;;;;;8.13;1.40;;;15.10;99.90;;;;;;5000594;28;20228;-59
2022/11/03 12:03:54;;;;;;;5.70;1.27;;;;;;;;;;5027950;28;20189;-60
2022/11/03 12:06:41;;;;;;;5.93;0.82;;;;;;;;;;5033734;28;20193;-60
2022/11/03 12:09:13;;;;;;;6.15;1.10;;;;;;;;;;5033631;28;20181;-60
2022/11/03 12:11:58;;;;;;;7.50;1.00;;;13.50;99.90;;;;;;5033693;28;20170;-60
2022/11/03 12:14:31;;;;;;;9.50;1.30;;;;;;;;;;5033686;28;20197;-60
2022/11/03 12:17:17;;;;;;;6.22;1.13;;;13.30;99.90;;;;;;5033535;28;20178;-61
2022/11/03 12:19:46;;;;;;;15.43;1.23;;;;;;;;;;5002047;28;20556;-60
2022/11/03 12:22:24;;;;;;;10.60;1.20;;;12.90;99.90;;;;;;5033470;28;20571;-60
2022/11/03 12:24:52;;;;;;;6.10;1.10;;;;;;;;;;5033526;28;20253;-60
2022/11/03 12:27:24;;;;;;;7.77;1.10;;;12.40;99.90;;;;;;5033403;28;20174;-60
2022/11/03 12:29:50;;;;;;;12.10;1.27;;;;;;;;;;5033459;28;20170;-60
2022/11/03 12:32:16;;;;;;;10.37;1.50;;;;;;;;;;5033358;28;20732;-60
2022/11/03 12:34:42;;;;;;;6.83;1.00;;;;;;;;;;5033465;28;20216;-60
2022/11/03 12:37:08;;;;;;;6.70;1.20;;;;;;;;;;5033454;28;20189;-60
2022/11/03 12:39:35;;;;;;;10.10;1.27;;;;;;;;;;5033078;28;20174;-60
2022/11/03 12:42:01;;;;;;;5.53;1.30;;;;;;;;;;5033099;28;20684;-60
2022/11/03 12:44:27;;;;;;;8.47;1.23;;;;;;;;;;5033164;28;20177;-61
2022/11/03 12:46:53;;;;;;;6.00;1.40;;;;;;;;;;5033059;28;20166;-62
2022/11/03 12:49:19;;;;;;;6.90;1.20;;;;;;;;;;5033067;28;20273;-61
2022/11/03 12:51:45;;;;;;;5.30;1.20;;;;;;;;;;5032980;28;20170;-60
2022/11/03 12:54:11;;;;;;;4.60;1.02;;;;;;;;;;5032913;28;20585;-60
2022/11/03 12:56:37;;;;;;;6.85;1.13;;;;;;;;;;5032255;28;20700;-60
2022/11/03 12:59:03;;;;;;;8.00;1.05;;;20.10;99.90;;;;;;5032859;28;20182;-60
2022/11/03 13:01:29;;;;;;;4.72;1.17;;;;;;;;;;5032623;28;20746;-60
2022/11/03 13:03:55;;;;;;;4.68;1.13;;;;;;;;;;5032647;28;20166;-59
2022/11/03 13:06:21;;;;;;;7.75;1.05;;;;;;;;;;5033093;28;20196;-59
2022/11/03 13:08:49;;;;;;;6.35;1.20;;;;;;;;;;5032653;28;20636;-59
2022/11/03 13:13:59;;;;;;;5.70;1.15;;;14.90;99.90;;;;;;5032773;28;20201;-59
2022/11/03 13:16:25;;;;;;;5.38;0.98;;;;;;;;;;5026019;28;20616;-59
2022/11/03 13:18:51;;;;;;;3.78;0.90;;;14.70;99.90;;;;;;5018111;28;20717;-59
2022/11/03 13:21:17;;;;;;;4.05;0.93;;;;;;;;;;5023621;28;20201;-60
2022/11/03 13:23:43;;;;;;;6.75;1.02;;;;;;;;;;5022498;28;20186;-59
2022/11/03 13:26:09;;;;;;;3.20;0.93;;;;;;;;;;5015411;28;20432;-59
2022/11/03 13:28:35;;;;;;;6.70;1.05;;;;;;;;;;5025948;28;20170;-59
2022/11/03 13:31:02;;;;;;;9.02;1.08;;;;;;;;;;5029604;28;20667;-59
2022/11/03 13:33:28;;;;;;;5.03;1.08;;;;;;;;;;5027299;28;20197;-60
2022/11/03 13:35:54;;;;;;;8.68;1.17;;;;;;;;;;5032078;28;20181;-60
2022/11/03 13:38:20;;;;;;;6.78;1.10;;;;;;;;;;5029474;28;20180;-59
2022/11/03 13:40:46;;;;;;;3.88;0.90;;;12.50;99.90;;;;;;5031634;28;20897;-59
2022/11/03 13:43:12;;;;;;;4.85;0.90;;;;;;;;;;5031796;28;20194;-59
2022/11/03 13:45:38;;;;;;;3.55;0.70;;;;;;;;;;5031021;28;20178;-60
2022/11/03 13:48:04;;;;;;;4.80;1.00;;;;;;;;;;5030944;28;20235;-60
2022/11/03 13:50:30;;;;;;;2.73;0.90;;;;;;;;;;5030053;28;20269;-60
2022/11/03 13:52:56;;;;;;;3.13;0.80;;;;;;;;;;5029984;28;20609;-60
2022/11/03 13:55:22;;;;;;;4.05;0.93;;;;;;;;;;5031213;28;20640;-61
2022/11/03 13:57:48;;;;;;;6.47;1.05;;;;;;;;;;5028283;28;20217;-60
2022/11/03 14:00:15;;;;;;;4.43;0.70;;;;;;;;;;5028434;28;20265;-60
2022/11/03 14:02:41;;;;;;;3.03;1.08;;;;;;;;;;5026701;28;20628;-61
2022/11/03 14:05:08;;;;;;;6.38;2.20;;;20.00;99.90;;;;;;5011506;28;20205;-60
2022/11/03 14:07:34;;;;;;;6.97;1.42;;;20.60;99.90;;;;;;5022551;28;20233;-60
2022/11/03 14:10:00;;;;;;;5.45;1.30;;;;;;;;;;5010214;28;20177;-61
2022/11/03 14:12:29;;;;;;;4.93;1.33;;;;;;;;;;5019683;28;20179;-64
2022/11/03 14:14:55;;;;;;;4.65;1.45;;;;;;;;;;5018733;28;20178;-60
2022/11/03 14:17:23;;;;;;;4.72;1.60;;;;;;;;;;5019601;28;20304;-61
2022/11/03 14:19:49;;;;;;;5.93;1.70;;;;;;;;;;5027451;28;20210;-60
2022/11/03 14:22:15;;;;;;;4.63;1.50;;;;;;;;;;5016872;28;20237;-59
2022/11/03 14:24:41;;;;;;;3.72;1.30;;;;;;;;;;5027624;28;20189;-60
2022/11/03 14:27:07;;;;;;;3.50;1.25;;;;;;;;;;5024695;28;21824;-60
2022/11/03 14:29:34;;;;;;;2.38;0.98;;;;;;;;;;5025438;28;20177;-59